Time;durP1;ratioP1;P1;durP2;ratioP2;P2;SDS_P1;SDS_P2;PMS_P1;PMS_P2;Temp;Humidity;BMP_temperature;BMP_pressure;BME280_temperature;BME280_humidity;BME280_pressure;Samples;Min_cycle;Max_cycle;Signal;HPM_P1;HPM_P2
2019/12/24 00:00:40;;;;;;;5.7;3;;;;;;;5.03;100;961.4208;;;;
2019/12/24 00:03:05;;;;;;;5.8;3.2;;;;;;;4.99;100;961.3775;;;;
2019/12/24 00:05:30;;;;;;;5.7;2.9;;;;;;;5.06;100;961.3444;;;;
2019/12/24 00:07:55;;;;;;;6.2;3.1;;;;;;;5.03;100;961.3416;;;;
2019/12/24 00:10:20;;;;;;;6.9;3.4;;;;;;;5.03;100;961.3812;;;;
2019/12/24 00:12:45;;;;;;;5.3;2.8;;;;;;;4.97;100;961.3946;;;;
2019/12/24 00:15:11;;;;;;;6.6;3.4;;;;;;;4.99;100;961.3228;;;;
2019/12/24 00:17:36;;;;;;;5.2;2.8;;;;;;;5.04;100;961.4476;;;;
2019/12/24 00:20:01;;;;;;;6.6;2.9;;;;;;;4.99;100;961.4294;;;;
2019/12/24 00:22:27;;;;;;;6.2;3;;;;;;;5.06;100;961.3912;;;;
2019/12/24 00:24:52;;;;;;;7.3;3;;;;;;;5.05;100;961.4761;;;;
2019/12/24 00:27:18;;;;;;;6.7;2.8;;;;;;;4.99;100;961.5173;;;;
2019/12/24 00:29:43;;;;;;;5.2;3;;;;;;;4.99;100;961.5422;;;;
2019/12/24 00:32:08;;;;;;;6.3;2.6;;;;;;;5.04;100;961.5955;;;;
2019/12/24 00:34:34;;;;;;;5.4;2.5;;;;;;;5.07;100;961.6163;;;;
2019/12/24 00:36:59;;;;;;;5.3;2.7;;;;;;;4.98;100;961.5945;;;;
2019/12/24 00:39:24;;;;;;;5.1;2.6;;;;;;;5.03;100;961.5643;;;;
2019/12/24 00:41:49;;;;;;;4.5;2.3;;;;;;;5.19;100;961.5931;;;;
2019/12/24 00:44:14;;;;;;;5.1;2.1;;;;;;;5.16;100;961.5223;;;;
2019/12/24 00:46:39;;;;;;;5.8;2.5;;;;;;;5.08;100;961.6833;;;;
2019/12/24 00:49:04;;;;;;;5.8;2.3;;;;;;;5.11;100;961.6066;;;;
2019/12/24 00:51:30;;;;;;;6.2;2.4;;;;;;;5.08;100;961.7109;;;;
2019/12/24 00:53:55;;;;;;;4.6;2;;;;;;;5.14;100;961.7231;;;;
2019/12/24 00:56:20;;;;;;;6.5;2.4;;;;;;;5.2;100;961.7839;;;;
2019/12/24 00:58:45;;;;;;;4.7;2.2;;;;;;;5.13;100;961.7294;;;;
2019/12/24 01:01:10;;;;;;;6.2;2.3;;;;;;;5.16;100;961.7434;;;;
2019/12/24 01:03:35;;;;;;;5.1;1.9;;;;;;;5.15;100;961.7967;;;;
2019/12/24 01:06:01;;;;;;;4.5;2;;;;;;;5.17;100;961.8512;;;;
2019/12/24 01:08:26;;;;;;;5;2;;;;;;;5.18;100;961.8674;;;;
2019/12/24 01:10:52;;;;;;;6.1;2.1;;;;;;;5.14;100;961.9264;;;;
2019/12/24 01:13:17;;;;;;;5.9;1.8;;;;;;;5.15;100;961.9914;;;;
2019/12/24 01:15:42;;;;;;;6.2;2.4;;;;;;;5.24;100;961.9984;;;;
2019/12/24 01:18:07;;;;;;;5.7;1.8;;;;;;;5.21;100;961.963;;;;
2019/12/24 01:20:32;;;;;;;6.5;2.2;;;;;;;5.15;100;962.131;;;;
2019/12/24 01:22:57;;;;;;;4.5;2;;;;;;;5.18;100;962.1792;;;;
2019/12/24 01:25:22;;;;;;;7.4;2.4;;;;;;;5.25;100;962.111;;;;
2019/12/24 01:27:48;;;;;;;5.8;2.2;;;;;;;5.14;100;962.186;;;;
2019/12/24 01:30:13;;;;;;;6.3;2.1;;;;;;;5.18;100;962.192;;;;
2019/12/24 01:32:38;;;;;;;6.6;2.1;;;;;;;5.19;100;962.1699;;;;
2019/12/24 01:35:04;;;;;;;6.8;2.2;;;;;;;5.24;99.89551;962.2228;;;;
2019/12/24 01:37:29;;;;;;;7.1;2.1;;;;;;;5.2;100;962.1822;;;;
2019/12/24 01:39:54;;;;;;;7;2;;;;;;;5.17;100;962.2681;;;;
2019/12/24 01:42:19;;;;;;;6.3;2.1;;;;;;;5.2;99.9082;962.2241;;;;
2019/12/24 01:44:44;;;;;;;5.8;1.9;;;;;;;5.15;100;962.2488;;;;
2019/12/24 01:47:09;;;;;;;6.3;2;;;;;;;5.06;100;962.2611;;;;
2019/12/24 01:49:35;;;;;;;7.4;1.8;;;;;;;5.06;100;962.3312;;;;
2019/12/24 01:52:00;;;;;;;6.5;1.9;;;;;;;5.06;100;962.2689;;;;
2019/12/24 01:54:25;;;;;;;7.8;2.2;;;;;;;5.11;100;962.3358;;;;
2019/12/24 01:56:50;;;;;;;5.9;2.3;;;;;;;5.07;100;962.2575;;;;
2019/12/24 01:59:15;;;;;;;8.2;2.3;;;;;;;5.14;100;962.2786;;;;
2019/12/24 02:01:40;;;;;;;6.1;2.1;;;;;;;5.18;100;962.2986;;;;
2019/12/24 02:04:06;;;;;;;7.3;2.2;;;;;;;5.1;100;962.2981;;;;
2019/12/24 02:06:31;;;;;;;6.2;2.1;;;;;;;5.01;100;962.3531;;;;
2019/12/24 02:08:56;;;;;;;7.5;2.2;;;;;;;5.08;100;962.3547;;;;
2019/12/24 02:11:21;;;;;;;7.1;2.1;;;;;;;4.99;100;962.4023;;;;
2019/12/24 02:13:47;;;;;;;5.9;2;;;;;;;5.13;100;962.4651;;;;
2019/12/24 02:16:12;;;;;;;6.3;1.9;;;;;;;5.06;100;962.4725;;;;
2019/12/24 02:18:37;;;;;;;7.1;2.1;;;;;;;5.19;100;962.4783;;;;
2019/12/24 02:21:02;;;;;;;8.8;2.6;;;;;;;5.13;100;962.5047;;;;
2019/12/24 02:23:27;;;;;;;6.9;2.1;;;;;;;5.03;100;962.5553;;;;
2019/12/24 02:25:53;;;;;;;6.4;2;;;;;;;4.96;100;962.5941;;;;
2019/12/24 02:28:18;;;;;;;7.4;2.1;;;;;;;4.94;100;962.6068;;;;
2019/12/24 02:30:44;;;;;;;5.6;1.9;;;;;;;5.04;100;962.6323;;;;
2019/12/24 02:33:09;;;;;;;7;2.2;;;;;;;5.06;100;962.5839;;;;
2019/12/24 02:35:34;;;;;;;6.4;2.1;;;;;;;5.06;100;962.6568;;;;
2019/12/24 02:37:59;;;;;;;6.9;2.2;;;;;;;5.07;100;962.6855;;;;
2019/12/24 02:42:50;;;;;;;9;2.3;;;;;;;4.99;100;962.7311;;;;
2019/12/24 02:45:15;;;;;;;8;2.1;;;;;;;4.91;100;962.6866;;;;
2019/12/24 02:47:40;;;;;;;6.9;2.1;;;;;;;4.89;100;962.7587;;;;
2019/12/24 02:50:05;;;;;;;7.3;2.1;;;;;;;4.95;100;962.7017;;;;
2019/12/24 02:52:30;;;;;;;7.3;2.3;;;;;;;5.06;100;962.7634;;;;
2019/12/24 02:54:56;;;;;;;7;2.2;;;;;;;5.06;100;962.7615;;;;
2019/12/24 02:57:21;;;;;;;8.2;2.3;;;;;;;4.96;99.93262;962.7175;;;;
2019/12/24 02:59:46;;;;;;;6.8;2.1;;;;;;;5.09;100;962.717;;;;
2019/12/24 03:02:11;;;;;;;6.2;2.3;;;;;;;4.98;100;962.7508;;;;
2019/12/24 03:04:36;;;;;;;8.8;2.2;;;;;;;4.9;99.63379;962.793;;;;
2019/12/24 03:07:01;;;;;;;8;2.4;;;;;;;4.96;100;962.7927;;;;
2019/12/24 03:09:27;;;;;;;6.5;1.9;;;;;;;5;98.94141;962.8059;;;;
2019/12/24 03:11:52;;;;;;;6.5;2;;;;;;;4.94;99.79199;962.7484;;;;
2019/12/24 03:14:17;;;;;;;6.6;1.8;;;;;;;5.09;99.18066;962.7916;;;;
2019/12/24 03:16:42;;;;;;;7.9;2.2;;;;;;;4.85;99.33984;962.8169;;;;
2019/12/24 03:19:07;;;;;;;5.7;2;;;;;;;5.02;99.68457;962.8647;;;;
2019/12/24 03:21:33;;;;;;;7.6;1.9;;;;;;;5.04;99.45215;962.8261;;;;
2019/12/24 03:23:58;;;;;;;7;2;;;;;;;4.99;99.66602;962.718;;;;
2019/12/24 03:26:23;;;;;;;5.9;2;;;;;;;4.91;100;962.7098;;;;
2019/12/24 03:28:48;;;;;;;7.4;2.2;;;;;;;4.84;100;962.6568;;;;
2019/12/24 03:31:14;;;;;;;7.8;2.2;;;;;;;4.78;100;962.6512;;;;
2019/12/24 03:33:39;;;;;;;6.9;2.4;;;;;;;4.76;99.90723;962.6373;;;;
2019/12/24 03:36:04;;;;;;;6.7;2.3;;;;;;;4.77;100;962.5474;;;;
2019/12/24 03:38:29;;;;;;;5.2;1.8;;;;;;;4.88;99.1416;962.5477;;;;
2019/12/24 03:40:54;;;;;;;8.4;2.2;;;;;;;4.88;100;962.5112;;;;
2019/12/24 03:43:20;;;;;;;7.1;2;;;;;;;4.86;99.75098;962.462;;;;
2019/12/24 03:45:45;;;;;;;7.7;2.1;;;;;;;4.93;99.55176;962.4053;;;;
2019/12/24 03:48:10;;;;;;;6.5;2;;;;;;;4.88;100;962.4307;;;;
2019/12/24 03:50:35;;;;;;;6.9;2.1;;;;;;;4.93;100;962.3373;;;;
2019/12/24 03:53:00;;;;;;;8;2.4;;;;;;;4.81;99.93164;962.3085;;;;
2019/12/24 03:55:26;;;;;;;6.1;2.1;;;;;;;4.81;99.86328;962.3384;;;;
2019/12/24 03:57:51;;;;;;;6.2;2.1;;;;;;;4.81;100;962.2867;;;;
2019/12/24 04:02:28;;;;;;;7.2;2;;;;;;;4.74;100;962.3118;;;;
2019/12/24 04:04:53;;;;;;;6.3;1.8;;;;;;;4.74;100;962.3248;;;;
2019/12/24 04:07:18;;;;;;;7;2.2;;;;;;;4.65;100;962.3214;;;;
2019/12/24 04:09:44;;;;;;;6;2.2;;;;;;;4.66;100;962.2696;;;;
2019/12/24 04:12:09;;;;;;;5.7;1.9;;;;;;;4.63;100;962.2963;;;;
2019/12/24 04:14:34;;;;;;;5.6;1.9;;;;;;;4.68;100;962.3166;;;;
2019/12/24 04:16:59;;;;;;;6.5;2;;;;;;;4.57;100;962.2806;;;;
2019/12/24 04:19:24;;;;;;;6.5;2.3;;;;;;;4.57;100;962.2006;;;;
2019/12/24 04:21:49;;;;;;;5.5;2.1;;;;;;;4.53;100;962.2231;;;;
2019/12/24 04:24:14;;;;;;;7.4;2.4;;;;;;;4.47;100;962.181;;;;
2019/12/24 04:26:39;;;;;;;6.4;2.2;;;;;;;4.5;100;962.2316;;;;
2019/12/24 04:29:04;;;;;;;8.9;2.2;;;;;;;4.47;100;962.2552;;;;
2019/12/24 04:31:30;;;;;;;6;2.1;;;;;;;4.49;100;962.2372;;;;
2019/12/24 04:33:55;;;;;;;6.5;2.2;;;;;;;4.45;100;962.2858;;;;
2019/12/24 04:36:20;;;;;;;6.2;2.3;;;;;;;4.34;100;962.288;;;;
2019/12/24 04:38:45;;;;;;;7.1;2.4;;;;;;;4.33;100;962.3089;;;;
2019/12/24 04:41:10;;;;;;;7.6;2.1;;;;;;;4.31;100;962.3251;;;;
2019/12/24 04:43:35;;;;;;;5.9;1.8;;;;;;;4.35;100;962.3586;;;;
2019/12/24 04:46:00;;;;;;;6.6;2.2;;;;;;;4.28;100;962.3191;;;;
2019/12/24 04:48:25;;;;;;;6.2;1.9;;;;;;;4.33;100;962.3605;;;;
2019/12/24 04:50:50;;;;;;;5.2;1.8;;;;;;;4.33;100;962.3688;;;;
2019/12/24 04:53:15;;;;;;;5.8;2;;;;;;;4.33;100;962.3083;;;;
2019/12/24 04:55:40;;;;;;;7.5;2.2;;;;;;;4.4;100;962.2659;;;;
2019/12/24 04:58:05;;;;;;;7.5;2.2;;;;;;;4.48;100;962.2023;;;;
2019/12/24 05:00:30;;;;;;;6.3;2.1;;;;;;;4.53;100;962.1733;;;;
2019/12/24 05:02:55;;;;;;;7.3;1.8;;;;;;;4.54;100;962.1671;;;;
2019/12/24 05:05:20;;;;;;;6.4;1.9;;;;;;;4.48;99.68359;962.1545;;;;
2019/12/24 05:07:46;;;;;;;5.8;1.8;;;;;;;4.52;99.94141;962.13;;;;
2019/12/24 05:10:11;;;;;;;7.2;2.1;;;;;;;4.43;100;962.1817;;;;
2019/12/24 05:12:36;;;;;;;6.5;2;;;;;;;4.42;99.96387;962.1711;;;;
2019/12/24 05:15:01;;;;;;;7.3;2;;;;;;;4.47;99.97656;962.2083;;;;
2019/12/24 05:17:26;;;;;;;7.3;2;;;;;;;4.54;99.86816;962.1309;;;;
2019/12/24 05:19:51;;;;;;;7;2;;;;;;;4.64;98.66797;962.0792;;;;
2019/12/24 05:22:16;;;;;;;9.4;2.2;;;;;;;4.53;98.68555;962.0949;;;;
2019/12/24 05:24:41;;;;;;;5.6;1.8;;;;;;;4.56;99.42969;962.0914;;;;
2019/12/24 05:27:06;;;;;;;7.6;2.1;;;;;;;4.48;98.88867;962.0553;;;;
2019/12/24 05:29:31;;;;;;;8.2;2.3;;;;;;;4.49;99.0957;961.9934;;;;
2019/12/24 05:31:56;;;;;;;7.8;2.3;;;;;;;4.51;99.46484;962.0503;;;;
2019/12/24 05:34:21;;;;;;;8.7;2.2;;;;;;;4.52;99.2041;962.0284;;;;
2019/12/24 05:36:46;;;;;;;11.2;2.7;;;;;;;4.42;99.19434;961.9478;;;;
2019/12/24 05:39:12;;;;;;;6.2;1.8;;;;;;;4.44;98.63086;961.9487;;;;
2019/12/24 05:41:37;;;;;;;8;2.1;;;;;;;4.38;99.24023;961.9765;;;;
2019/12/24 05:44:02;;;;;;;8.2;2.2;;;;;;;4.36;99.46289;962.0079;;;;
2019/12/24 05:46:28;;;;;;;7.5;2.1;;;;;;;4.28;99.5918;962.0192;;;;
2019/12/24 05:48:53;;;;;;;9.7;2.7;;;;;;;4.23;100;961.9723;;;;
2019/12/24 05:51:18;;;;;;;10.1;2.4;;;;;;;4.26;99.3252;961.9717;;;;
2019/12/24 05:53:43;;;;;;;8.1;2.4;;;;;;;4.28;99.76172;961.9771;;;;
2019/12/24 05:56:09;;;;;;;8.2;2.4;;;;;;;4.17;100;961.9426;;;;
2019/12/24 05:58:34;;;;;;;8.6;2.4;;;;;;;4.22;99.96289;962.0044;;;;
2019/12/24 06:00:59;;;;;;;8.1;2.4;;;;;;;4.2;99.83398;962.0149;;;;
2019/12/24 06:03:24;;;;;;;9.6;2.6;;;;;;;4.25;100;961.9289;;;;
2019/12/24 06:05:49;;;;;;;8.4;2.3;;;;;;;4.3;99.32422;961.9009;;;;
2019/12/24 06:08:15;;;;;;;8.1;2.4;;;;;;;4.24;99.1416;961.9484;;;;
2019/12/24 06:10:40;;;;;;;7.3;2.4;;;;;;;4.24;100;961.8839;;;;
2019/12/24 06:13:05;;;;;;;7.4;2.5;;;;;;;4.19;99.68262;961.861;;;;
2019/12/24 06:15:31;;;;;;;8.5;2.9;;;;;;;4.07;100;961.8873;;;;
2019/12/24 06:17:56;;;;;;;9.6;2.7;;;;;;;4.01;99.9375;961.7386;;;;
2019/12/24 06:20:21;;;;;;;8.4;2.3;;;;;;;4.05;99.49219;961.7047;;;;
2019/12/24 06:22:47;;;;;;;8.5;2.3;;;;;;;4.13;99.54492;961.6191;;;;
2019/12/24 06:25:18;;;;;;;7.1;2.1;;;;;;;4.07;99.35156;961.5237;;;;
2019/12/24 06:27:43;;;;;;;8.6;2.4;;;;;;;4.06;99.75684;961.4592;;;;
2019/12/24 06:30:08;;;;;;;8.7;2.4;;;;;;;3.95;99.11621;961.4094;;;;
2019/12/24 06:32:34;;;;;;;7.8;2.3;;;;;;;3.93;100;961.4483;;;;
2019/12/24 06:34:59;;;;;;;7.2;2.3;;;;;;;3.9;98.98242;961.4703;;;;
2019/12/24 06:37:24;;;;;;;11.3;2.8;;;;;;;3.92;100;961.5278;;;;
2019/12/24 06:39:49;;;;;;;10;2.5;;;;;;;3.93;99.11133;961.5652;;;;
2019/12/24 06:42:14;;;;;;;8.1;2.5;;;;;;;3.85;100;961.5153;;;;
2019/12/24 06:44:39;;;;;;;10.3;3;;;;;;;3.73;100;961.4581;;;;
2019/12/24 06:47:04;;;;;;;7.5;2.5;;;;;;;3.88;100;961.4967;;;;
2019/12/24 06:49:29;;;;;;;7.1;2.1;;;;;;;3.82;99.66602;961.4608;;;;
2019/12/24 06:51:54;;;;;;;7.6;2.2;;;;;;;3.81;99.32422;961.3879;;;;
2019/12/24 06:54:19;;;;;;;7.4;2.5;;;;;;;3.84;100;961.35;;;;
2019/12/24 06:56:44;;;;;;;9.5;2.4;;;;;;;3.7;100;961.335;;;;
2019/12/24 06:59:09;;;;;;;7.8;2.3;;;;;;;3.76;100;961.3184;;;;
2019/12/24 07:01:35;;;;;;;6.9;2.5;;;;;;;3.78;100;961.2255;;;;
2019/12/24 07:04:00;;;;;;;8.5;3;;;;;;;3.63;100;961.1891;;;;
2019/12/24 07:06:25;;;;;;;9.9;3;;;;;;;3.59;100;961.1205;;;;
2019/12/24 07:08:50;;;;;;;9.6;3.4;;;;;;;3.82;100;961.1189;;;;
2019/12/24 07:11:15;;;;;;;8.4;2.7;;;;;;;3.61;100;961.0309;;;;
2019/12/24 07:13:40;;;;;;;8.3;2.9;;;;;;;3.72;99.74512;961.0195;;;;
2019/12/24 07:16:05;;;;;;;10;3;;;;;;;3.62;100;961.0463;;;;
2019/12/24 07:18:30;;;;;;;8.1;2.9;;;;;;;3.53;100;961.0097;;;;
2019/12/24 07:20:56;;;;;;;7.7;2.9;;;;;;;3.57;100;960.9766;;;;
2019/12/24 07:23:21;;;;;;;9.4;3;;;;;;;3.6;100;960.9501;;;;
2019/12/24 07:25:46;;;;;;;11.6;3.8;;;;;;;3.34;100;960.8956;;;;
2019/12/24 07:28:11;;;;;;;11.5;3.4;;;;;;;3.4;100;960.9467;;;;
2019/12/24 07:30:36;;;;;;;8.6;3;;;;;;;3.53;100;960.9775;;;;
2019/12/24 07:33:02;;;;;;;10.1;2.9;;;;;;;3.54;100;960.9229;;;;
2019/12/24 07:35:27;;;;;;;9.4;2.9;;;;;;;3.57;99.75488;960.8196;;;;
2019/12/24 07:37:52;;;;;;;9.4;3.2;;;;;;;3.58;100;960.7863;;;;
2019/12/24 07:40:17;;;;;;;10.2;3.2;;;;;;;3.42;98.72363;960.736;;;;
2019/12/24 07:42:42;;;;;;;8.5;2.8;;;;;;;3.53;100;960.6414;;;;
2019/12/24 07:45:07;;;;;;;9.2;2.8;;;;;;;3.59;100;960.6727;;;;
2019/12/24 07:47:33;;;;;;;6.7;2.7;;;;;;;3.67;98.97363;960.6399;;;;
2019/12/24 07:49:58;;;;;;;9.5;3;;;;;;;3.72;98.12305;960.6124;;;;
2019/12/24 07:52:23;;;;;;;8.8;2.9;;;;;;;3.64;98.91992;960.6778;;;;
2019/12/24 07:54:48;;;;;;;8.8;3.1;;;;;;;3.74;99.44141;960.7194;;;;
2019/12/24 07:57:13;;;;;;;8.4;2.8;;;;;;;3.68;99.10059;960.7863;;;;
2019/12/24 07:59:38;;;;;;;8.8;3;;;;;;;3.79;98.62695;960.8187;;;;
2019/12/24 08:02:04;;;;;;;8.3;2.7;;;;;;;3.78;98.96484;960.8505;;;;
2019/12/24 08:04:29;;;;;;;10.1;2.8;;;;;;;3.99;95.56934;960.8223;;;;
2019/12/24 08:06:54;;;;;;;7.3;2.5;;;;;;;4.04;96.44043;960.832;;;;
2019/12/24 08:09:19;;;;;;;9.4;3;;;;;;;4.05;95.47949;960.7825;;;;
2019/12/24 08:11:45;;;;;;;10.3;2.9;;;;;;;4.07;95.63086;960.6822;;;;
2019/12/24 08:14:10;;;;;;;8.8;2.8;;;;;;;4;94.53809;960.6848;;;;
2019/12/24 08:16:35;;;;;;;10.2;2.9;;;;;;;3.9;94.2666;960.6069;;;;
2019/12/24 08:19:00;;;;;;;10.4;2.8;;;;;;;4.02;94.78223;960.5909;;;;
2019/12/24 08:21:25;;;;;;;9;2.7;;;;;;;4.02;94.63477;960.6003;;;;
2019/12/24 08:23:51;;;;;;;9.5;3.2;;;;;;;4.02;96.23242;960.4803;;;;
2019/12/24 08:26:16;;;;;;;8.4;2.6;;;;;;;4.02;95.08789;960.3748;;;;
2019/12/24 08:28:41;;;;;;;7.9;2.5;;;;;;;4.04;95.16016;960.3322;;;;
2019/12/24 08:31:07;;;;;;;8.8;2.8;;;;;;;4.14;94.56934;960.2525;;;;
2019/12/24 08:33:32;;;;;;;8.4;2.8;;;;;;;4.16;94.72266;960.2505;;;;
2019/12/24 08:35:57;;;;;;;10.9;2.7;;;;;;;4.2;94.2207;960.1972;;;;
2019/12/24 08:38:22;;;;;;;8.1;2.8;;;;;;;4.12;93.03711;960.0728;;;;
2019/12/24 08:40:47;;;;;;;9.6;3;;;;;;;4.28;93.5918;960.1303;;;;
2019/12/24 08:43:12;;;;;;;10.5;3;;;;;;;4.05;91.4209;960.139;;;;
2019/12/24 08:45:38;;;;;;;10.6;3;;;;;;;4.27;93.6582;960.106;;;;
2019/12/24 08:48:03;;;;;;;8.3;2.9;;;;;;;4.3;93.30078;960.1064;;;;
2019/12/24 08:50:28;;;;;;;11.2;3.2;;;;;;;4.36;92.71387;960.0581;;;;
2019/12/24 08:52:54;;;;;;;12.6;3.5;;;;;;;4.45;90.94238;960.0235;;;;
2019/12/24 08:55:19;;;;;;;11.3;3.2;;;;;;;4.34;90.36133;960.0012;;;;
2019/12/24 08:57:44;;;;;;;13.5;3.6;;;;;;;4.36;90.9209;960.026;;;;
2019/12/24 09:00:09;;;;;;;12.3;3.4;;;;;;;4.4;92.61914;959.954;;;;
2019/12/24 09:02:34;;;;;;;13.4;3.8;;;;;;;4.5;90.83691;959.9416;;;;
2019/12/24 09:05:18;;;;;;;13.1;3.4;;;;;;;4.51;89.64648;959.8758;;;;
2019/12/24 09:07:25;;;;;;;11.1;3.3;;;;;;;4.68;90.50195;959.8994;;;;
2019/12/24 09:09:50;;;;;;;9.8;3.2;;;;;;;4.81;91.43848;959.8555;;;;
2019/12/24 09:12:15;;;;;;;12.7;3.7;;;;;;;4.8;90.19727;959.8245;;;;
2019/12/24 09:14:40;;;;;;;9.6;3.2;;;;;;;4.78;89.94336;959.7929;;;;
2019/12/24 09:17:05;;;;;;;10.4;3;;;;;;;4.81;87.57617;959.7753;;;;
2019/12/24 09:19:31;;;;;;;10.9;3.1;;;;;;;4.76;87.91895;959.73;;;;
2019/12/24 09:21:56;;;;;;;11.9;3.5;;;;;;;4.94;88.79492;959.6638;;;;
2019/12/24 09:24:21;;;;;;;12.7;3.5;;;;;;;5.04;86.56738;959.6002;;;;
2019/12/24 09:26:47;;;;;;;8.8;2.9;;;;;;;5.21;86.71387;959.4589;;;;
2019/12/24 09:29:12;;;;;;;10.4;3.2;;;;;;;5.19;86.38184;959.5042;;;;
2019/12/24 09:31:37;;;;;;;11.8;3.1;;;;;;;5.08;86.2334;959.4892;;;;
2019/12/24 09:34:02;;;;;;;10.7;3;;;;;;;5.06;85.83203;959.4117;;;;
2019/12/24 09:36:28;;;;;;;9.1;2.7;;;;;;;5.17;86.37695;959.3005;;;;
2019/12/24 09:38:53;;;;;;;11;3;;;;;;;5.26;85.18066;959.2281;;;;
2019/12/24 09:41:18;;;;;;;10.4;2.9;;;;;;;5.18;85.16211;959.1581;;;;
2019/12/24 09:43:43;;;;;;;12.3;3.3;;;;;;;5.25;83.89258;959.0767;;;;
2019/12/24 09:46:08;;;;;;;11.3;3.4;;;;;;;5.31;85.2002;959.0103;;;;
2019/12/24 09:48:34;;;;;;;10.5;3;;;;;;;5.35;84.94629;959.0078;;;;
2019/12/24 09:50:59;;;;;;;10.4;3;;;;;;;5.34;84.29785;958.9866;;;;
2019/12/24 09:53:24;;;;;;;12.7;3.2;;;;;;;5.38;84.80566;958.8744;;;;
2019/12/24 09:55:49;;;;;;;10.2;2.9;;;;;;;5.51;83.85254;958.7941;;;;
2019/12/24 09:58:14;;;;;;;9.1;2.9;;;;;;;5.63;86.18652;958.666;;;;
2019/12/24 10:00:39;;;;;;;9.9;3;;;;;;;5.71;85.01953;958.57;;;;
2019/12/24 10:03:05;;;;;;;11.3;3.6;;;;;;;5.7;85.58594;958.5352;;;;
2019/12/24 10:05:30;;;;;;;9.8;3.4;;;;;;;5.57;84.64941;958.4238;;;;
2019/12/24 10:07:55;;;;;;;11.2;3.3;;;;;;;5.69;85.02539;958.3731;;;;
2019/12/24 10:10:20;;;;;;;10.6;3.4;;;;;;;5.61;82.88379;958.2733;;;;
2019/12/24 10:12:45;;;;;;;8.6;3.3;;;;;;;5.81;83.72754;958.1566;;;;
2019/12/24 10:15:11;;;;;;;8.2;2.9;;;;;;;5.97;84.78418;958.0297;;;;
2019/12/24 10:17:36;;;;;;;11;3.3;;;;;;;6.06;83.45996;958.0435;;;;
2019/12/24 10:20:01;;;;;;;10;3.6;;;;;;;6.05;82.16016;957.9694;;;;
2019/12/24 10:22:26;;;;;;;11.9;3.1;;;;;;;6.11;81.81738;957.9367;;;;
2019/12/24 10:24:52;;;;;;;9.8;3.3;;;;;;;6.08;83.28125;957.9615;;;;
2019/12/24 10:27:17;;;;;;;10.8;3.6;;;;;;;6.01;84.01758;958.0067;;;;
2019/12/24 10:29:42;;;;;;;9.9;3.6;;;;;;;5.97;83.52246;957.9416;;;;
2019/12/24 10:32:08;;;;;;;10.4;2.9;;;;;;;5.99;84.33203;957.9592;;;;
2019/12/24 10:34:33;;;;;;;8.4;2.7;;;;;;;6.04;84.12891;957.9232;;;;
2019/12/24 10:36:58;;;;;;;9.9;3.6;;;;;;;6.06;82.42188;957.8758;;;;
2019/12/24 10:39:23;;;;;;;9.5;2.9;;;;;;;6.13;83.38281;957.7737;;;;
2019/12/24 10:41:48;;;;;;;8.7;2.8;;;;;;;6.1;83.77637;957.687;;;;
2019/12/24 10:44:13;;;;;;;7.5;2.6;;;;;;;6.13;83.55371;957.6228;;;;
2019/12/24 10:46:39;;;;;;;10.4;3;;;;;;;6.23;83.03613;957.4802;;;;
2019/12/24 10:49:04;;;;;;;12;6.3;;;;;;;6.44;86.38281;957.4981;;;;
2019/12/24 10:51:29;;;;;;;9.7;3.9;;;;;;;6.58;83.41309;957.3448;;;;
2019/12/24 10:53:54;;;;;;;8.3;2.9;;;;;;;6.41;81.89844;957.3459;;;;
2019/12/24 10:56:19;;;;;;;10.4;3;;;;;;;6.46;83.65234;957.3404;;;;
2019/12/24 10:58:44;;;;;;;7.2;3.1;;;;;;;6.59;83.02734;957.3377;;;;
2019/12/24 11:01:09;;;;;;;8.9;3.2;;;;;;;6.58;82.90918;957.2045;;;;
2019/12/24 11:03:35;;;;;;;9.6;3;;;;;;;6.45;81.84766;957.2037;;;;
2019/12/24 11:06:00;;;;;;;8.8;2.7;;;;;;;6.4;82.39746;957.1331;;;;
2019/12/24 11:08:25;;;;;;;8;2.9;;;;;;;6.39;82.41895;957.1342;;;;
2019/12/24 11:10:51;;;;;;;9.1;3;;;;;;;6.4;81.49609;957.1269;;;;
2019/12/24 11:13:16;;;;;;;8.5;2.7;;;;;;;6.31;82.30078;957.1399;;;;
2019/12/24 11:15:41;;;;;;;8.3;2.8;;;;;;;6.41;80.96387;957.1105;;;;
2019/12/24 11:18:06;;;;;;;7.2;2.7;;;;;;;6.35;83.23242;957.1411;;;;
2019/12/24 11:20:31;;;;;;;8;2.5;;;;;;;6.14;81.75586;957.182;;;;
2019/12/24 11:22:57;;;;;;;6.4;2.2;;;;;;;6.24;82.47949;957.0978;;;;
2019/12/24 11:25:22;;;;;;;6.2;2;;;;;;;6.19;81.83203;957.0475;;;;
2019/12/24 11:27:48;;;;;;;5.7;1.9;;;;;;;6.28;81.41797;957.0282;;;;
2019/12/24 11:30:13;;;;;;;4.9;1.9;;;;;;;6.31;82.64063;956.9655;;;;
2019/12/24 11:32:38;;;;;;;4.8;2;;;;;;;6.22;82.0332;956.9244;;;;
2019/12/24 11:35:03;;;;;;;5.2;1.8;;;;;;;6.17;80.61035;956.7932;;;;
2019/12/24 11:37:29;;;;;;;6.1;1.9;;;;;;;6.23;83.41211;956.676;;;;
2019/12/24 11:39:54;;;;;;;5;1.7;;;;;;;6.14;83.58984;956.5311;;;;
2019/12/24 11:42:19;;;;;;;6.7;1.9;;;;;;;6.04;84.46973;956.5054;;;;
2019/12/24 11:44:45;;;;;;;4.6;1.5;;;;;;;5.87;85.2334;956.4592;;;;
2019/12/24 11:47:10;;;;;;;9.8;1.6;;;;;;;5.82;87.98828;956.3411;;;;
2019/12/24 11:49:35;;;;;;;6.5;1.7;;;;;;;5.72;88.46777;956.3153;;;;
2019/12/24 11:52:00;;;;;;;5.4;1.7;;;;;;;5.75;90.4873;956.2806;;;;
2019/12/24 11:54:25;;;;;;;5.9;1.9;;;;;;;5.61;91.06348;956.2001;;;;
2019/12/24 11:56:50;;;;;;;6.5;2.2;;;;;;;5.64;93.93457;956.1008;;;;
2019/12/24 11:59:16;;;;;;;7.3;2.1;;;;;;;5.57;92.38281;956.1213;;;;
2019/12/24 12:01:41;;;;;;;6;1.8;;;;;;;5.58;93.57227;956.2137;;;;
2019/12/24 12:04:06;;;;;;;5.7;1.7;;;;;;;5.67;95.79688;956.1511;;;;
2019/12/24 12:06:31;;;;;;;7.8;1.9;;;;;;;5.76;96.69336;956.1111;;;;
2019/12/24 12:08:56;;;;;;;7.6;1.9;;;;;;;5.56;96.22852;955.9927;;;;
2019/12/24 12:11:21;;;;;;;6.6;1.9;;;;;;;5.45;98.27148;956.0923;;;;
2019/12/24 12:13:47;;;;;;;5.9;2;;;;;;;5.44;99.36328;956.0478;;;;
2019/12/24 12:16:12;;;;;;;5.7;2;;;;;;;5.35;98.23828;955.9363;;;;
2019/12/24 12:18:37;;;;;;;5.8;1.8;;;;;;;5.35;98.52441;955.9003;;;;
2019/12/24 12:21:03;;;;;;;5.9;1.9;;;;;;;5.31;97.72949;955.8713;;;;
2019/12/24 12:23:28;;;;;;;5.5;1.8;;;;;;;5.51;99.74219;955.8462;;;;
2019/12/24 12:25:53;;;;;;;7.7;2.3;;;;;;;5.52;98.8252;955.7762;;;;
2019/12/24 12:28:19;;;;;;;5.6;1.9;;;;;;;5.51;100;955.6136;;;;
2019/12/24 12:30:44;;;;;;;5.5;2.2;;;;;;;5.52;100;955.3972;;;;
2019/12/24 12:33:09;;;;;;;5.7;1.9;;;;;;;5.38;100;955.3903;;;;
2019/12/24 12:35:34;;;;;;;4.2;1.8;;;;;;;5.39;100;955.3714;;;;
2019/12/24 12:37:59;;;;;;;5.6;1.9;;;;;;;5.35;100;955.428;;;;
2019/12/24 12:40:24;;;;;;;5.4;1.7;;;;;;;5.38;100;955.3677;;;;
2019/12/24 12:42:49;;;;;;;5;1.8;;;;;;;5.23;100;955.2902;;;;
2019/12/24 12:45:14;;;;;;;3.9;1.7;;;;;;;5.17;100;955.2009;;;;
2019/12/24 12:47:40;;;;;;;4.7;1.5;;;;;;;5.17;100;955.1387;;;;
2019/12/24 12:50:05;;;;;;;4.4;1.6;;;;;;;5.28;100;955.1351;;;;
2019/12/24 12:52:30;;;;;;;3.5;1.6;;;;;;;5.33;100;955.1409;;;;
2019/12/24 12:54:55;;;;;;;3.2;1.3;;;;;;;5.24;100;955.1178;;;;
2019/12/24 12:57:21;;;;;;;3.4;1.5;;;;;;;5.23;100;955.1132;;;;
2019/12/24 12:59:46;;;;;;;2.9;1.5;;;;;;;5.12;100;955.2261;;;;
2019/12/24 13:02:11;;;;;;;2.8;1.5;;;;;;;5.17;100;955.1718;;;;
2019/12/24 13:04:36;;;;;;;7.1;4.1;;;;;;;5.23;100;955.1222;;;;
2019/12/24 13:07:01;;;;;;;3.4;1.7;;;;;;;5.21;100;955.0426;;;;
2019/12/24 13:09:26;;;;;;;3.4;1.7;;;;;;;5.29;100;954.9416;;;;
2019/12/24 13:11:51;;;;;;;3;1.4;;;;;;;5.43;100;955.0186;;;;
2019/12/24 13:14:16;;;;;;;2.6;1.2;;;;;;;5.35;100;954.9539;;;;
2019/12/24 13:16:41;;;;;;;2;1.3;;;;;;;5.49;100;954.9332;;;;
2019/12/24 13:19:07;;;;;;;2.7;1.3;;;;;;;5.55;100;955.0499;;;;
2019/12/24 13:21:32;;;;;;;1.9;1.2;;;;;;;5.46;100;955.0162;;;;
2019/12/24 13:23:57;;;;;;;2;1.3;;;;;;;5.49;100;954.9414;;;;
2019/12/24 13:26:23;;;;;;;2.2;1.5;;;;;;;5.53;100;954.9029;;;;
2019/12/24 13:28:48;;;;;;;2.2;1.5;;;;;;;5.56;100;954.8989;;;;
2019/12/24 13:31:13;;;;;;;2.7;1.7;;;;;;;5.49;100;955.0585;;;;
2019/12/24 13:33:38;;;;;;;2.8;1.8;;;;;;;5.51;100;955.0681;;;;
2019/12/24 13:36:03;;;;;;;2.9;1.7;;;;;;;5.54;100;955.2137;;;;
2019/12/24 13:38:28;;;;;;;2.7;1.5;;;;;;;5.56;100;954.9583;;;;
2019/12/24 13:40:54;;;;;;;2.7;1.4;;;;;;;5.68;100;955.2622;;;;
2019/12/24 13:43:19;;;;;;;4.3;1.6;;;;;;;5.68;100;955.1635;;;;
2019/12/24 13:45:44;;;;;;;3.5;1.9;;;;;;;5.67;100;954.9896;;;;
2019/12/24 13:48:10;;;;;;;2.8;1.8;;;;;;;5.7;100;955.094;;;;
2019/12/24 13:50:35;;;;;;;3;1.8;;;;;;;5.72;100;955.1804;;;;
2019/12/24 13:53:00;;;;;;;2;1.7;;;;;;;5.61;100;955.1842;;;;
2019/12/24 13:55:25;;;;;;;2.2;1.7;;;;;;;5.74;100;955.23;;;;
2019/12/24 13:57:50;;;;;;;3.3;2.2;;;;;;;5.74;100;955.3776;;;;
2019/12/24 14:00:15;;;;;;;2.5;1.7;;;;;;;5.74;100;955.2875;;;;
2019/12/24 14:02:41;;;;;;;2.7;1.8;;;;;;;5.8;100;955.4573;;;;
2019/12/24 14:05:06;;;;;;;2;1.5;;;;;;;5.76;100;955.4297;;;;
2019/12/24 14:07:31;;;;;;;2.5;1.6;;;;;;;5.78;100;955.3002;;;;
2019/12/24 14:09:56;;;;;;;2.5;1.6;;;;;;;5.83;100;955.3658;;;;
2019/12/24 14:12:21;;;;;;;2.4;1.8;;;;;;;5.92;100;955.3809;;;;
2019/12/24 14:14:47;;;;;;;2;1.3;;;;;;;6;100;955.392;;;;
2019/12/24 14:17:12;;;;;;;2.4;1.7;;;;;;;6.02;100;955.332;;;;
2019/12/24 14:19:37;;;;;;;1.8;1.2;;;;;;;5.92;100;955.0895;;;;
2019/12/24 14:22:02;;;;;;;2;1.3;;;;;;;5.97;100;954.9997;;;;
2019/12/24 14:24:29;;;;;;;1.6;1.3;;;;;;;5.94;100;955.0536;;;;
2019/12/24 14:26:54;;;;;;;2;1.3;;;;;;;6.03;100;955.2294;;;;
2019/12/24 14:29:19;;;;;;;2.9;1.3;;;;;;;5.99;100;955.2542;;;;
2019/12/24 14:32:01;;;;;;;2.4;1.1;;;;;;;6;100;955.2277;;;;
2019/12/24 14:34:09;;;;;;;2;1.3;;;;;;;5.99;100;955.1135;;;;
2019/12/24 14:36:34;;;;;;;2;1.4;;;;;;;6;100;955.0676;;;;
2019/12/24 14:39:00;;;;;;;2.3;1.3;;;;;;;6.14;100;955.0976;;;;
2019/12/24 14:41:25;;;;;;;1.7;1.2;;;;;;;6.02;100;955.2819;;;;
2019/12/24 14:43:50;;;;;;;2;1.2;;;;;;;5.97;100;955.2025;;;;
2019/12/24 14:46:15;;;;;;;2.4;1.5;;;;;;;6.02;100;955.3061;;;;
2019/12/24 14:48:40;;;;;;;2.2;1.3;;;;;;;6.09;100;955.3848;;;;
2019/12/24 14:51:06;;;;;;;1.4;1.1;;;;;;;6.08;100;955.2115;;;;
2019/12/24 14:53:31;;;;;;;2.3;1.3;;;;;;;6.13;100;955.2872;;;;
2019/12/24 14:55:56;;;;;;;2.6;1.3;;;;;;;6.08;100;955.1937;;;;
2019/12/24 14:58:21;;;;;;;2.5;1.2;;;;;;;6.07;100;955.1605;;;;
2019/12/24 15:00:47;;;;;;;1.7;1.2;;;;;;;6.08;100;955.1808;;;;
2019/12/24 15:03:12;;;;;;;1.3;1.2;;;;;;;6.07;100;955.2944;;;;
2019/12/24 15:05:37;;;;;;;2.5;1.2;;;;;;;6.15;100;955.5832;;;;